Time;durP1;ratioP1;P1;durP2;ratioP2;P2;SDS_P1;SDS_P2;PMS_P1;PMS_P2;Temp;Humidity;BMP_temperature;BMP_pressure;BME280_temperature;BME280_humidity;BME280_pressure;Samples;Min_cycle;Max_cycle;Signal;HPM_P1;HPM_P2
2023/01/28 00:00:15;;;;;;;;;;;;;;;-0.72;100.00;99393.88;67798;1278;1015920;-59
2023/01/28 00:03:38;;;;;;;;;;;;;;;-0.81;100.00;99399.09;67795;1278;1016032;-59
2023/01/28 00:06:40;;;;;;;;;;;;;;;-0.77;100.00;99401.30;67822;1278;1016469;-59
2023/01/28 00:09:43;;;;;;;;;;;;;;;-0.81;100.00;99402.52;67807;1278;1016575;-60
2023/01/28 00:12:45;;;;;;;;;;;;;;;-0.87;100.00;99398.09;65365;1278;1019554;-59
2023/01/28 00:15:48;;;;;;;;;;;;;;;-0.93;100.00;99402.59;67819;1278;1016179;-59
2023/01/28 00:18:51;;;;;;;;;;;;;;;-0.95;100.00;99403.27;67820;1278;1016238;-59
2023/01/28 00:22:03;;;;;;;;;;;;;;;-0.94;100.00;99399.84;67746;1278;1016365;-59
2023/01/28 00:25:06;;;;;;;;;;;;;;;-0.89;100.00;99397.91;67831;1278;1016235;-59
2023/01/28 00:28:09;;;;;;;;;;;;;;;-0.88;100.00;99390.88;67868;1278;1016428;-59
2023/01/28 00:31:11;;;;;;;;;;;;;;;-0.87;100.00;99388.65;67824;1278;1016468;-59
2023/01/28 00:34:14;;;;;;;;;;;;;;;-0.81;100.00;99389.48;67797;1278;1016374;-59
2023/01/28 00:37:16;;;;;;;;;;;;;;;-0.77;100.00;99384.63;67809;1278;1016446;-59
2023/01/28 00:40:18;;;;;;;;;;;;;;;-0.84;100.00;99383.81;67900;1278;1016809;-59
2023/01/28 00:43:21;;;;;;;;;;;;;;;-0.90;100.00;99385.40;67860;1278;1016398;-59
2023/01/28 00:46:24;;;;;;;;;;;;;;;-0.93;100.00;99380.95;67726;1278;1016453;-59
2023/01/28 00:49:26;;;;;;;;;;;;;;;-0.97;100.00;99380.27;67850;1278;1016518;-59
2023/01/28 00:52:29;;;;;;;;;;;;;;;-0.98;100.00;99379.26;67876;1278;1016457;-59
2023/01/28 00:55:31;;;;;;;;;;;;;;;-0.99;100.00;99376.86;67860;1278;1016387;-59
2023/01/28 00:58:33;;;;;;;;;;;;;;;-0.97;100.00;99378.40;67815;1278;1016355;-59
2023/01/28 01:01:36;;;;;;;;;;;;;;;-0.95;100.00;99385.59;67765;1278;1016305;-59
2023/01/28 01:04:39;;;;;;;;;;;;;;;-0.97;100.00;99385.27;67818;1278;1016145;-59
2023/01/28 01:07:44;;;;;;;;;;;;;;;-0.99;100.00;99395.05;67846;1278;1016281;-59
2023/01/28 01:10:46;;;;;;;;;;;;;;;-0.98;100.00;99399.35;67745;1278;1016278;-59
2023/01/28 01:13:49;;;;;;;;;;;;;;;-0.99;100.00;99397.80;67775;1278;1016097;-59
2023/01/28 01:16:51;;;;;;;;;;;;;;;-1.01;100.00;99400.90;67854;1278;1016369;-59
2023/01/28 01:19:53;;;;;;;;;;;;;;;-1.02;100.00;99403.66;67742;1278;1016215;-58
2023/01/28 01:22:56;;;;;;;;;;;;;;;-1.01;100.00;99406.75;67828;1278;1018641;-59
2023/01/28 01:25:59;;;;;;;;;;;;;;;-0.99;100.00;99405.18;67806;1278;1017562;-59
2023/01/28 01:29:01;;;;;;;;;;;;;;;-0.94;100.00;99407.91;67881;1278;1016425;-59
2023/01/28 01:32:04;;;;;;;;;;;;;;;-0.94;100.00;99410.65;67806;1278;1017009;-59
2023/01/28 01:35:07;;;;;;;;;;;;;;;-0.95;100.00;99407.91;67809;1278;1018845;-59
2023/01/28 01:38:09;;;;;;;;;;;;;;;-0.95;100.00;99413.06;67876;1278;1016333;-59
2023/01/28 01:41:11;;;;;;;;;;;;;;;-0.99;100.00;99410.17;67863;1278;1016414;-59
2023/01/28 01:44:14;;;;;;;;;;;;;;;-1.05;100.00;99414.83;67869;1278;1016364;-59
2023/01/28 01:47:16;;;;;;;;;;;;;;;-1.02;100.00;99412.26;67752;1278;1016388;-59
2023/01/28 01:50:19;;;;;;;;;;;;;;;-1.05;100.00;99418.77;67854;1278;1016186;-59
2023/01/28 01:53:21;;;;;;;;;;;;;;;-1.07;100.00;99416.73;67826;1278;1016335;-59
2023/01/28 01:56:24;;;;;;;;;;;;;;;-1.07;100.00;99414.49;67864;1278;1016288;-58
2023/01/28 01:59:26;;;;;;;;;;;;;;;-1.08;100.00;99411.74;67830;1278;1016202;-59
2023/01/28 02:02:28;;;;;;;;;;;;;;;-1.12;100.00;99408.86;67776;1278;1016295;-59
2023/01/28 02:05:31;;;;;;;;;;;;;;;-1.11;100.00;99406.78;67804;1278;1016274;-59
2023/01/28 02:08:33;;;;;;;;;;;;;;;-1.09;100.00;99409.52;67800;1278;1016496;-59
2023/01/28 02:11:36;;;;;;;;;;;;;;;-1.08;100.00;99410.38;67877;1278;1016504;-59
2023/01/28 02:14:38;;;;;;;;;;;;;;;-1.07;100.00;99410.37;67860;1278;1018800;-59
2023/01/28 02:17:40;;;;;;;;;;;;;;;-1.07;100.00;99414.16;67846;1278;1016708;-59
2023/01/28 02:20:43;;;;;;;;;;;;;;;-1.05;100.00;99412.77;67805;1278;1016288;-59
2023/01/28 02:23:45;;;;;;;;;;;;;;;-1.06;100.00;99413.80;67813;1278;1016207;-59
2023/01/28 02:26:47;;;;;;;;;;;;;;;-1.00;100.00;99418.58;67840;1278;1016012;-59
2023/01/28 02:29:50;;;;;;;;;;;;;;;-0.99;100.00;99423.55;67795;1278;1016642;-59
2023/01/28 02:32:52;;;;;;;;;;;;;;;-1.04;100.00;99421.35;67844;1278;1016453;-59
2023/01/28 02:35:55;;;;;;;;;;;;;;;-1.00;100.00;99420.65;67759;1278;1016783;-59
2023/01/28 02:38:57;;;;;;;;;;;;;;;-1.01;100.00;99420.48;67845;1278;1016596;-58
2023/01/28 02:41:59;;;;;;;;;;;;;;;-1.05;100.00;99422.73;67780;1278;1018084;-59
2023/01/28 02:45:02;;;;;;;;;;;;;;;-1.05;100.00;99424.27;67801;1278;1016606;-59
2023/01/28 02:48:04;;;;;;;;;;;;;;;-1.06;100.00;99422.39;67839;1278;1016257;-59
2023/01/28 02:51:07;;;;;;;;;;;;;;;-1.08;100.00;99425.49;67887;1278;1016147;-59
2023/01/28 02:54:09;;;;;;;;;;;;;;;-1.09;100.00;99431.67;67838;1278;1016418;-59
2023/01/28 02:57:11;;;;;;;;;;;;;;;-1.05;100.00;99437.82;67775;1278;1016208;-59
2023/01/28 03:00:14;;;;;;;;;;;;;;;-1.05;100.00;99442.81;67804;1278;1016639;-59
2023/01/28 03:03:16;;;;;;;;;;;;;;;-1.06;100.00;99439.55;67837;1278;1017125;-58
2023/01/28 03:06:18;;;;;;;;;;;;;;;-1.06;100.00;99439.20;67855;1278;1016374;-59
2023/01/28 03:09:25;;;;;;;;;;;;;;;-1.09;100.00;99437.33;67863;1278;1016326;-59
2023/01/28 03:39:08;;;;;;;;;;;;;;;-1.10;100.00;99431.67;67821;1278;1015924;-59
2023/01/28 03:42:10;;;;;;;;;;;;;;;-1.17;100.00;99432.91;67793;1278;1016178;-59
2023/01/28 03:45:13;;;;;;;;;;;;;;;-1.23;100.00;99430.00;67872;1278;1016799;-59
2023/01/28 03:48:15;;;;;;;;;;;;;;;-1.24;100.00;99432.06;67858;1278;1016024;-59
2023/01/28 03:51:18;;;;;;;;;;;;;;;-1.24;100.00;99429.15;67812;1278;1016123;-59
2023/01/28 03:54:20;;;;;;;;;;;;;;;-1.25;100.00;99426.05;67776;1278;1016409;-59
2023/01/28 03:57:23;;;;;;;;;;;;;;;-1.26;100.00;99428.80;67780;1278;1016887;-59
2023/01/28 04:00:25;;;;;;;;;;;;;;;-1.27;100.00;99429.52;67805;1278;1016136;-59
2023/01/28 04:03:28;;;;;;;;;;;;;;;-1.21;100.00;99431.89;67853;1278;1017985;-59
2023/01/28 04:06:30;;;;;;;;;;;;;;;-1.25;100.00;99432.59;67726;1278;1016233;-59
2023/01/28 04:09:32;;;;;;;;;;;;;;;-1.27;100.00;99439.79;67784;1278;1016371;-60
2023/01/28 04:12:36;;;;;;;;;;;;;;;-1.28;100.00;99441.35;67766;1278;1016497;-59
2023/01/28 04:15:39;;;;;;;;;;;;;;;-1.29;100.00;99442.73;67774;1278;1016792;-59
2023/01/28 04:18:41;;;;;;;;;;;;;;;-1.29;100.00;99441.87;67840;1278;1016256;-60
2023/01/28 04:21:43;;;;;;;;;;;;;;;-1.29;100.00;99442.55;67830;1278;1016372;-59
2023/01/28 04:24:46;;;;;;;;;;;;;;;-1.26;100.00;99439.96;67850;1278;1016382;-60
2023/01/28 04:27:48;;;;;;;;;;;;;;;-1.30;100.00;99441.02;67754;1278;1016481;-59
2023/01/28 04:30:50;;;;;;;;;;;;;;;-1.29;100.00;99440.31;67701;1278;1016937;-59
2023/01/28 04:33:53;;;;;;;;;;;;;;;-1.28;100.00;99443.92;67785;1278;1016184;-60
2023/01/28 04:36:55;;;;;;;;;;;;;;;-1.26;100.00;99442.72;67861;1278;1016810;-59
2023/01/28 04:39:58;;;;;;;;;;;;;;;-1.26;100.00;99450.08;67800;1278;1016409;-59
2023/01/28 04:43:00;;;;;;;;;;;;;;;-1.26;100.00;99447.52;67839;1278;1016275;-59
2023/01/28 04:46:02;;;;;;;;;;;;;;;-1.27;100.00;99450.10;67787;1278;1016014;-60
2023/01/28 04:49:05;;;;;;;;;;;;;;;-1.24;100.00;99450.77;67775;1278;1016464;-59
2023/01/28 04:52:07;;;;;;;;;;;;;;;-1.24;100.00;99451.80;67807;1278;1016563;-59
2023/01/28 04:55:09;;;;;;;;;;;;;;;-1.28;100.00;99452.84;67837;1278;1017460;-59
2023/01/28 04:58:12;;;;;;;;;;;;;;;-1.30;100.00;99448.21;67853;1278;1016327;-59
2023/01/28 05:01:14;;;;;;;;;;;;;;;-1.31;100.00;99445.65;67820;1278;1016411;-59
2023/01/28 05:04:16;;;;;;;;;;;;;;;-1.33;100.00;99445.81;67774;1278;1016456;-60
2023/01/28 05:07:19;;;;;;;;;;;;;;;-1.32;100.00;99449.94;67799;1278;1016338;-60
2023/01/28 05:10:21;;;;;;;;;;;;;;;-1.32;100.00;99451.65;67811;1278;1016429;-59
2023/01/28 05:13:24;;;;;;;;;;;;;;;-1.36;100.00;99451.50;67842;1278;1016336;-59
2023/01/28 05:16:26;;;;;;;;;;;;;;;-1.36;100.00;99448.91;67710;1278;1016449;-59
2023/01/28 05:19:29;;;;;;;;;;;;;;;-1.35;100.00;99454.41;67723;1278;1016288;-60
2023/01/28 05:22:31;;;;;;;;;;;;;;;-1.33;100.00;99456.64;67793;1278;1016442;-59
2023/01/28 05:25:33;;;;;;;;;;;;;;;-1.31;100.00;99466.40;67780;1278;1018183;-59
2023/01/28 05:28:36;;;;;;;;;;;;;;;-1.29;100.00;99474.30;67827;1278;1016184;-59
2023/01/28 05:31:38;;;;;;;;;;;;;;;-1.26;100.00;99474.64;67836;1278;1018209;-60
2023/01/28 05:34:40;;;;;;;;;;;;;;;-1.25;100.00;99482.02;67787;1278;1016436;-59
2023/01/28 05:37:43;;;;;;;;;;;;;;;-1.22;100.00;99489.90;67792;1278;1018267;-59
2023/01/28 05:40:45;;;;;;;;;;;;;;;-1.19;100.00;99489.70;67771;1278;1016182;-59
2023/01/28 05:43:48;;;;;;;;;;;;;;;-1.17;100.00;99492.29;67768;1278;1016444;-59
2023/01/28 05:46:50;;;;;;;;;;;;;;;-1.19;100.00;99493.67;67811;1278;1016390;-59
2023/01/28 05:49:52;;;;;;;;;;;;;;;-1.23;100.00;99495.40;67759;1278;1016941;-59
2023/01/28 05:52:55;;;;;;;;;;;;;;;-1.21;100.00;99497.45;67764;1278;1018145;-59
2023/01/28 05:55:57;;;;;;;;;;;;;;;-1.20;100.00;99498.30;67752;1278;1016308;-59
2023/01/28 05:59:00;;;;;;;;;;;;;;;-1.13;100.00;99502.91;67812;1278;1016464;-59
2023/01/28 06:02:02;;;;;;;;;;;;;;;-1.16;100.00;99503.11;67828;1278;1016430;-59
2023/01/28 06:05:04;;;;;;;;;;;;;;;-1.18;100.00;99506.19;67844;1278;1016444;-59
2023/01/28 06:08:08;;;;;;;;;;;;;;;-1.17;100.00;99502.42;67764;1278;1016469;-59
2023/01/28 06:11:10;;;;;;;;;;;;;;;-1.11;100.00;99508.05;67770;1278;1015942;-60
2023/01/28 06:14:12;;;;;;;;;;;;;;;-1.09;100.00;99509.78;67761;1278;1016483;-59
2023/01/28 06:17:15;;;;;;;;;;;;;;;-1.07;100.00;99508.23;67819;1278;1018571;-59
2023/01/28 06:20:17;;;;;;;;;;;;;;;-1.10;100.00;99513.73;67759;1278;1016991;-59
2023/01/28 06:23:20;;;;;;;;;;;;;;;-1.08;100.00;99514.77;67769;1278;1016488;-59
2023/01/28 06:26:22;;;;;;;;;;;;;;;-1.10;100.00;99517.84;67784;1278;1018695;-60
2023/01/28 06:29:24;;;;;;;;;;;;;;;-1.06;100.00;99522.46;67792;1278;1016793;-60
2023/01/28 06:32:27;;;;;;;;;;;;;;;-1.01;100.00;99518.35;67808;1278;1016241;-59
2023/01/28 06:35:29;;;;;;;;;;;;;;;-0.97;100.00;99521.08;67864;1278;1016463;-59
2023/01/28 06:38:32;;;;;;;;;;;;;;;-0.92;100.00;99520.02;67776;1278;1016123;-59
2023/01/28 06:41:34;;;;;;;;;;;;;;;-0.91;100.00;99524.65;67776;1278;1015926;-59
2023/01/28 06:44:36;;;;;;;;;;;;;;;-0.89;100.00;99528.42;67786;1278;1016381;-60
2023/01/28 06:47:39;;;;;;;;;;;;;;;-0.85;100.00;99529.79;67813;1278;1015911;-59
2023/01/28 06:50:41;;;;;;;;;;;;;;;-0.85;100.00;99532.54;67863;1278;1016018;-60
2023/01/28 06:53:44;;;;;;;;;;;;;;;-0.76;100.00;99530.45;67828;1278;1018808;-59
2023/01/28 06:56:46;;;;;;;;;;;;;;;-0.65;100.00;99532.13;67797;1278;1016141;-60
2023/01/28 06:59:48;;;;;;;;;;;;;;;-0.63;100.00;99536.05;67805;1278;1016408;-59
2023/01/28 07:02:51;;;;;;;;;;;;;;;-0.66;100.00;99530.58;67777;1278;1016867;-59
2023/01/28 07:05:53;;;;;;;;;;;;;;;-0.59;100.00;99528.48;67809;1278;1016728;-59
2023/01/28 07:08:55;;;;;;;;;;;;;;;-0.50;100.00;99527.42;67836;1278;1016476;-59
2023/01/28 07:11:58;;;;;;;;;;;;;;;-0.44;100.00;99535.46;67810;1278;1016518;-59
2023/01/28 07:15:00;;;;;;;;;;;;;;;-0.42;100.00;99537.69;67742;1278;1016349;-59
2023/01/28 07:18:03;;;;;;;;;;;;;;;-0.38;100.00;99541.45;67777;1278;1018709;-59
2023/01/28 07:21:05;;;;;;;;;;;;;;;-0.17;100.00;99546.33;67803;1278;1016462;-60
2023/01/28 07:24:07;;;;;;;;;;;;;;;-0.10;100.00;99549.20;67837;1278;1016258;-59
2023/01/28 07:27:10;;;;;;;;;;;;;;;-0.06;100.00;99548.31;67827;1278;1016483;-59
2023/01/28 07:30:12;;;;;;;;;;;;;;;-0.04;100.00;99543.84;67813;1278;1016364;-59
2023/01/28 07:33:15;;;;;;;;;;;;;;;-0.01;100.00;99549.30;67786;1278;1016435;-59
2023/01/28 07:36:17;;;;;;;;;;;;;;;0.05;100.00;99553.23;67784;1278;1016245;-59
2023/01/28 07:39:20;;;;;;;;;;;;;;;0.05;100.00;99562.34;67824;1278;1016457;-59
2023/01/28 07:42:22;;;;;;;;;;;;;;;0.08;100.00;99562.33;67733;1278;1016265;-59
2023/01/28 07:45:25;;;;;;;;;;;;;;;0.15;100.00;99562.28;67802;1278;1016200;-59
2023/01/28 07:48:27;;;;;;;;;;;;;;;0.26;100.00;99564.27;67774;1278;1016074;-59
2023/01/28 07:51:29;;;;;;;;;;;;;;;0.23;100.00;99565.33;67834;1278;1016186;-59
2023/01/28 07:54:32;;;;;;;;;;;;;;;0.25;100.00;99575.11;67808;1278;1016496;-59
2023/01/28 07:57:34;;;;;;;;;;;;;;;0.16;100.00;99576.55;67849;1278;1016439;-59
2023/01/28 08:00:37;;;;;;;;;;;;;;;0.13;100.00;99577.94;67804;1278;1016403;-59
2023/01/28 08:03:39;;;;;;;;;;;;;;;0.15;100.00;99580.34;67777;1278;1016364;-59
2023/01/28 08:06:41;;;;;;;;;;;;;;;0.13;100.00;99577.42;67797;1278;1019811;-59
2023/01/28 08:09:44;;;;;;;;;;;;;;;0.15;100.00;99578.63;67815;1278;1017513;-59
2023/01/28 08:12:46;;;;;;;;;;;;;;;0.13;100.00;99582.94;67727;1278;1015977;-60
2023/01/28 08:15:48;;;;;;;;;;;;;;;0.11;100.00;99582.27;67829;1278;1016537;-59
2023/01/28 08:18:51;;;;;;;;;;;;;;;0.05;100.00;99581.27;67763;1278;1016462;-59
2023/01/28 08:21:53;;;;;;;;;;;;;;;0.13;100.00;99580.53;67756;1278;1016503;-59
2023/01/28 08:24:56;;;;;;;;;;;;;;;0.22;100.00;99580.48;67752;1278;1016309;-59
2023/01/28 08:27:58;;;;;;;;;;;;;;;0.24;100.00;99577.87;67814;1278;1016463;-59
2023/01/28 08:31:00;;;;;;;;;;;;;;;0.11;100.00;99575.72;67810;1278;1015635;-59
2023/01/28 08:34:03;;;;;;;;;;;;;;;0.06;100.00;99576.63;67759;1278;1016459;-59
2023/01/28 08:37:05;;;;;;;;;;;;;;;0.12;100.00;99575.38;67763;1278;1016608;-59
2023/01/28 08:40:08;;;;;;;;;;;;;;;0.26;100.00;99577.86;67759;1278;1016241;-59
2023/01/28 08:43:10;;;;;;;;;;;;;;;0.40;100.00;99576.56;67839;1278;1016346;-59
2023/01/28 08:46:12;;;;;;;;;;;;;;;0.42;100.00;99576.73;67853;1278;1016471;-60
2023/01/28 08:49:15;;;;;;;;;;;;;;;0.47;100.00;99577.02;67838;1278;1016195;-59
2023/01/28 08:52:17;;;;;;;;;;;;;;;0.49;100.00;99579.06;67784;1278;1016226;-59
2023/01/28 08:55:20;;;;;;;;;;;;;;;0.39;100.00;99578.61;67787;1278;1016179;-59
2023/01/28 08:58:22;;;;;;;;;;;;;;;0.39;100.00;99575.02;67784;1278;1016149;-59
2023/01/28 09:01:25;;;;;;;;;;;;;;;0.48;100.00;99580.63;67832;1278;1016497;-59
2023/01/28 09:04:27;;;;;;;;;;;;;;;0.66;100.00;99579.80;67775;1278;1016495;-59
2023/01/28 09:07:30;;;;;;;;;;;;;;;0.66;100.00;99578.06;67739;1278;1016151;-60
2023/01/28 09:10:32;;;;;;;;;;;;;;;0.76;100.00;99582.64;67698;1278;1016134;-60
2023/01/28 09:13:35;;;;;;;;;;;;;;;0.81;100.00;99581.03;67854;1278;1016574;-59
2023/01/28 09:16:37;;;;;;;;;;;;;;;0.69;100.00;99588.52;67840;1278;1016561;-60
2023/01/28 09:19:39;;;;;;;;;;;;;;;0.65;100.00;99593.23;67666;1278;1016019;-59
2023/01/28 09:22:42;;;;;;;;;;;;;;;0.71;100.00;99592.48;67720;1278;1016481;-59
2023/01/28 09:25:44;;;;;;;;;;;;;;;0.69;100.00;99589.40;67784;1278;1016452;-60
2023/01/28 09:28:47;;;;;;;;;;;;;;;0.66;100.00;99592.01;67794;1278;1018151;-59
2023/01/28 09:31:49;;;;;;;;;;;;;;;0.70;100.00;99592.31;67838;1278;1016381;-59
2023/01/28 09:34:52;;;;;;;;;;;;;;;0.75;100.00;99590.04;67854;1278;1016365;-59
2023/01/28 09:37:54;;;;;;;;;;;;;;;0.81;100.00;99596.70;67767;1278;1016314;-59
2023/01/28 09:40:56;;;;;;;;;;;;;;;0.79;100.00;99591.73;67775;1278;1016425;-59
2023/01/28 09:44:00;;;;;;;;;;;;;;;0.77;100.00;99588.30;67849;1278;1018475;-59
2023/01/28 09:47:02;;;;;;;;;;;;;;;0.80;100.00;99587.06;67815;1278;1016182;-59
2023/01/28 09:50:05;;;;;;;;;;;;;;;0.80;100.00;99586.38;67780;1278;1016345;-59
2023/01/28 09:53:07;;;;;;;;;;;;;;;0.81;100.00;99579.81;67775;1278;1016221;-59
2023/01/28 09:56:10;;;;;;;;;;;;;;;0.91;100.00;99581.63;67831;1278;1016480;-60
2023/01/28 09:59:12;;;;;;;;;;;;;;;1.08;100.00;99583.88;67705;1278;1015996;-59
2023/01/28 10:02:14;;;;;;;;;;;;;;;1.15;100.00;99587.77;67749;1278;1016319;-59
2023/01/28 10:05:17;;;;;;;;;;;;;;;1.06;100.00;99584.41;67794;1278;1016505;-59
2023/01/28 10:08:19;;;;;;;;;;;;;;;0.93;100.00;99585.57;67851;1278;1016325;-59
2023/01/28 10:11:22;;;;;;;;;;;;;;;0.80;100.00;99584.30;67747;1278;1016329;-59
2023/01/28 10:14:24;;;;;;;;;;;;;;;0.86;100.00;99583.92;67863;1278;1016858;-60
2023/01/28 10:17:26;;;;;;;;;;;;;;;1.04;100.00;99578.73;67820;1278;1016110;-59
2023/01/28 10:20:29;;;;;;;;;;;;;;;1.11;100.00;99582.48;67785;1278;1016679;-59
2023/01/28 10:23:32;;;;;;;;;;;;;;;1.09;100.00;99580.42;67836;1278;1016481;-59
2023/01/28 10:26:34;;;;;;;;;;;;;;;1.14;100.00;99575.89;67776;1278;1015766;-59
2023/01/28 10:29:38;;;;;;;;;;;;;;;1.32;100.00;99568.98;67780;1278;1017989;-59
2023/01/28 10:32:41;;;;;;;;;;;;;;;1.46;100.00;99570.53;67773;1278;1016483;-59
2023/01/28 10:35:44;;;;;;;;;;;;;;;1.47;100.00;99570.01;67848;1278;1018595;-59
2023/01/28 10:38:46;;;;;;;;;;;;;;;1.52;100.00;99572.36;67814;1278;1016490;-59
2023/01/28 10:41:49;;;;;;;;;;;;;;;1.46;100.00;99567.09;67702;1278;1016038;-59
2023/01/28 10:44:51;;;;;;;;;;;;;;;1.44;100.00;99569.69;67794;1278;1016475;-59
2023/01/28 10:47:53;;;;;;;;;;;;;;;1.43;100.00;99575.73;67854;1278;1016409;-59
2023/01/28 10:50:58;;;;;;;;;;;;;;;1.47;100.00;99570.71;67841;1278;1016089;-59
2023/01/28 10:54:00;;;;;;;;;;;;;;;1.41;100.00;99571.29;67709;1278;1016429;-59
2023/01/28 10:57:04;;;;;;;;;;;;;;;1.37;100.00;99574.08;67821;1278;1016940;-59
2023/01/28 11:00:06;;;;;;;;;;;;;;;1.34;100.00;99569.30;67828;1278;1016212;-59
2023/01/28 11:03:08;;;;;;;;;;;;;;;1.32;100.00;99565.19;67793;1278;1016263;-59
2023/01/28 11:06:11;;;;;;;;;;;;;;;1.34;100.00;99571.88;67816;1278;1016213;-59
2023/01/28 11:09:13;;;;;;;;;;;;;;;1.27;100.00;99567.14;67820;1278;1016459;-59
2023/01/28 11:12:16;;;;;;;;;;;;;;;1.29;100.00;99563.84;67838;1278;1016358;-60
2023/01/28 11:15:18;;;;;;;;;;;;;;;1.32;100.00;99560.20;67852;1278;1016481;-60
2023/01/28 11:18:21;;;;;;;;;;;;;;;1.38;100.00;99558.05;67804;1278;1016386;-60
2023/01/28 11:21:23;;;;;;;;;;;;;;;1.44;100.00;99559.87;67790;1278;1019481;-59
2023/01/28 11:24:25;;;;;;;;;;;;;;;1.52;100.00;99557.70;67787;1278;1016365;-59
2023/01/28 11:27:28;;;;;;;;;;;;;;;1.54;100.00;99556.30;67813;1278;1016295;-59
2023/01/28 11:30:31;;;;;;;;;;;;;;;1.51;100.00;99555.13;67842;1278;1016486;-59
2023/01/28 11:33:33;;;;;;;;;;;;;;;1.50;100.00;99553.94;67773;1278;1020116;-59
2023/01/28 11:36:36;;;;;;;;;;;;;;;1.54;100.00;99554.06;67809;1278;1016457;-60
2023/01/28 11:39:38;;;;;;;;;;;;;;;1.50;100.00;99550.48;67735;1278;1017175;-60
2023/01/28 11:42:40;;;;;;;;;;;;;;;1.43;100.00;99548.16;67832;1278;1016199;-60
2023/01/28 11:45:43;;;;;;;;;;;;;;;1.34;100.00;99548.61;67865;1278;1016496;-59
2023/01/28 11:48:45;;;;;;;;;;;;;;;1.28;100.00;99549.72;67848;1278;1016515;-59
2023/01/28 11:51:48;;;;;;;;;;;;;;;1.20;100.00;99555.15;67803;1278;1016233;-59
2023/01/28 11:54:50;;;;;;;;;;;;;;;1.18;100.00;99551.73;67799;1278;1019123;-60
2023/01/28 11:57:52;;;;;;;;;;;;;;;1.17;100.00;99551.21;67861;1278;1018103;-59
2023/01/28 12:00:56;;;;;;;;;;;;;;;1.19;100.00;99550.00;67848;1278;1016504;-59
2023/01/28 12:03:58;;;;;;;;;;;;;;;1.24;100.00;99548.38;67783;1278;1016108;-59
2023/01/28 12:07:03;;;;;;;;;;;;;;;1.27;100.00;99541.64;67843;1278;1016489;-59
2023/01/28 12:10:05;;;;;;;;;;;;;;;1.28;100.00;99538.01;65547;1278;5355203;-60
2023/01/28 12:13:08;;;;;;;;;;;;;;;1.32;100.00;99536.91;67806;1278;1016455;-59
2023/01/28 12:16:10;;;;;;;;;;;;;;;1.41;100.00;99534.06;67751;1278;1016392;-59
2023/01/28 12:19:12;;;;;;;;;;;;;;;1.31;100.00;99531.08;67713;1278;1016146;-59
2023/01/28 12:22:15;;;;;;;;;;;;;;;1.28;100.00;99535.42;67690;1278;1016217;-59
2023/01/28 12:25:17;;;;;;;;;;;;;;;1.34;100.00;99536.55;67818;1278;1016414;-60
2023/01/28 12:28:20;;;;;;;;;;;;;;;1.29;100.00;99535.93;67826;1278;1016505;-59
2023/01/28 12:31:22;;;;;;;;;;;;;;;1.19;100.00;99538.96;67805;1278;1016367;-59
2023/01/28 12:34:25;;;;;;;;;;;;;;;1.11;100.00;99540.61;67855;1278;1016390;-59
2023/01/28 12:37:27;;;;;;;;;;;;;;;1.12;100.00;99546.11;67805;1278;1016502;-59
2023/01/28 12:40:30;;;;;;;;;;;;;;;1.12;100.00;99544.57;67837;1278;1016466;-59
2023/01/28 12:43:33;;;;;;;;;;;;;;;1.02;100.00;99543.64;67808;1278;1016086;-59
2023/01/28 12:46:35;;;;;;;;;;;;;;;0.95;100.00;99544.38;67855;1278;1016124;-59
2023/01/28 12:49:37;;;;;;;;;;;;;;;0.92;100.00;99544.59;67867;1278;1016429;-59
2023/01/28 12:52:40;;;;;;;;;;;;;;;0.99;100.00;99544.01;67846;1278;1016393;-59
2023/01/28 12:55:43;;;;;;;;;;;;;;;0.91;100.00;99541.85;67738;1278;1016112;-59
2023/01/28 12:58:45;;;;;;;;;;;;;;;0.82;100.00;99538.84;67810;1278;1016488;-59
2023/01/28 13:01:47;;;;;;;;;;;;;;;0.84;100.00;99541.23;67858;1278;1016370;-60
2023/01/28 13:04:50;;;;;;;;;;;;;;;0.86;100.00;99542.06;67822;1278;1016467;-59
2023/01/28 13:07:52;;;;;;;;;;;;;;;0.84;100.00;99540.20;67794;1278;1016220;-59
2023/01/28 13:10:55;;;;;;;;;;;;;;;0.85;100.00;99550.35;67806;1278;1016404;-59
2023/01/28 13:13:57;;;;;;;;;;;;;;;0.83;100.00;99543.81;67849;1278;1016493;-59
2023/01/28 13:17:00;;;;;;;;;;;;;;;0.90;100.00;99543.76;67850;1278;1016526;-60
2023/01/28 13:20:02;;;;;;;;;;;;;;;0.98;100.00;99547.28;67787;1278;1016853;-59
2023/01/28 13:23:05;;;;;;;;;;;;;;;0.98;100.00;99548.15;67813;1278;1016411;-59
2023/01/28 13:26:08;;;;;;;;;;;;;;;1.00;100.00;99545.36;67852;1278;1016493;-59
2023/01/28 13:29:10;;;;;;;;;;;;;;;1.03;100.00;99547.41;67808;1278;1016459;-59
2023/01/28 13:32:13;;;;;;;;;;;;;;;1.06;100.00;99540.48;67807;1278;1017638;-59
2023/01/28 13:35:15;;;;;;;;;;;;;;;1.02;100.00;99544.33;67852;1278;1016834;-59
2023/01/28 13:38:17;;;;;;;;;;;;;;;1.01;100.00;99550.36;67856;1278;1019431;-59
2023/01/28 13:41:20;;;;;;;;;;;;;;;1.04;100.00;99550.49;67858;1278;1016431;-60
2023/01/28 13:44:22;;;;;;;;;;;;;;;1.09;100.00;99553.55;67785;1278;1016643;-60
2023/01/28 13:47:24;;;;;;;;;;;;;;;1.07;100.00;99557.54;67836;1278;1017611;-60
2023/01/28 13:50:27;;;;;;;;;;;;;;;0.94;100.00;99557.16;67828;1278;1016480;-59
2023/01/28 13:53:29;;;;;;;;;;;;;;;0.89;100.00;99558.40;67801;1278;1016165;-60
2023/01/28 13:56:32;;;;;;;;;;;;;;;0.80;100.00;99559.00;67845;1278;1016459;-59
2023/01/28 13:59:34;;;;;;;;;;;;;;;0.71;100.00;99561.15;67846;1278;1016341;-59
2023/01/28 14:02:36;;;;;;;;;;;;;;;0.65;100.00;99563.09;67788;1278;1016392;-59
2023/01/28 14:05:39;;;;;;;;;;;;;;;0.64;100.00;99559.33;67803;1278;1018860;-60
2023/01/28 14:08:41;;;;;;;;;;;;;;;0.68;100.00;99560.16;67861;1278;1016698;-59
2023/01/28 14:11:44;;;;;;;;;;;;;;;0.70;100.00;99565.80;67856;1278;1015713;-59
2023/01/28 14:14:46;;;;;;;;;;;;;;;0.72;100.00;99561.15;67851;1278;1016390;-59
2023/01/28 14:17:49;;;;;;;;;;;;;;;0.71;100.00;99564.42;67855;1278;1016477;-59
2023/01/28 14:20:51;;;;;;;;;;;;;;;0.72;100.00;99567.70;67818;1278;1016729;-59
2023/01/28 14:23:53;;;;;;;;;;;;;;;0.66;100.00;99569.30;67801;1278;1016149;-59
2023/01/28 14:26:56;;;;;;;;;;;;;;;0.63;100.00;99570.87;67738;1278;1015837;-59
2023/01/28 14:29:58;;;;;;;;;;;;;;;0.68;100.00;99572.72;67873;1278;1017611;-59
2023/01/28 14:33:01;;;;;;;;;;;;;;;0.71;100.00;99579.75;67851;1278;1016792;-59
2023/01/28 14:36:03;;;;;;;;;;;;;;;0.69;100.00;99580.80;67822;1278;1016241;-59
2023/01/28 14:39:06;;;;;;;;;;;;;;;0.61;100.00;99581.55;67702;1278;1016344;-59
2023/01/28 14:42:08;;;;;;;;;;;;;;;0.60;100.00;99577.59;67881;1278;1016224;-59
2023/01/28 14:45:10;;;;;;;;;;;;;;;0.53;100.00;99578.51;67863;1278;1016497;-59
2023/01/28 14:48:13;;;;;;;;;;;;;;;0.49;100.00;99575.64;67754;1278;1016295;-60
2023/01/28 14:51:15;;;;;;;;;;;;;;;0.47;100.00;99580.80;67807;1278;1016366;-59
2023/01/28 14:54:17;;;;;;;;;;;;;;;0.49;100.00;99580.09;67828;1278;1019049;-59
2023/01/28 14:57:20;;;;;;;;;;;;;;;0.49;100.00;99579.75;67813;1278;1015948;-59
2023/01/28 15:00:25;;;;;;;;;;;;;;;0.49;100.00;99585.77;67803;1278;1016326;-59
2023/01/28 15:03:28;;;;;;;;;;;;;;;0.40;100.00;99590.15;67807;1278;1016454;-59
2023/01/28 15:06:30;;;;;;;;;;;;;;;0.38;100.00;99585.35;67801;1278;1016504;-59
2023/01/28 15:09:32;;;;;;;;;;;;;;;0.41;100.00;99585.66;67854;1278;1016498;-60
2023/01/28 15:12:35;;;;;;;;;;;;;;;0.44;100.00;99589.44;67855;1278;1016485;-60
2023/01/28 15:15:37;;;;;;;;;;;;;;;0.44;100.00;99590.46;67883;1278;1018171;-59
2023/01/28 15:18:40;;;;;;;;;;;;;;;0.46;100.00;99593.54;67814;1278;1016286;-59
2023/01/28 15:21:42;;;;;;;;;;;;;;;0.46;100.00;99595.43;67748;1278;1016272;-62
2023/01/28 15:24:44;;;;;;;;;;;;;;;0.45;100.00;99596.13;67865;1278;1016441;-60
2023/01/28 15:27:47;;;;;;;;;;;;;;;0.47;100.00;99602.14;67853;1278;1016375;-59
2023/01/28 15:30:49;;;;;;;;;;;;;;;0.47;100.00;99603.52;67789;1278;1016243;-60
2023/01/28 15:33:51;;;;;;;;;;;;;;;0.45;100.00;99604.73;67719;1278;1018444;-59
2023/01/28 15:36:54;;;;;;;;;;;;;;;0.42;100.00;99607.35;67756;1278;1016230;-60
2023/01/28 15:39:56;;;;;;;;;;;;;;;0.45;100.00;99615.23;67805;1278;1016885;-59
2023/01/28 15:42:59;;;;;;;;;;;;;;;0.54;100.00;99616.04;67810;1278;1016445;-60
2023/01/28 15:46:01;;;;;;;;;;;;;;;0.59;100.00;99616.69;67856;1278;1016520;-59